Time;durP1;ratioP1;P1;durP2;ratioP2;P2;SDS_P1;SDS_P2;PMS_P1;PMS_P2;Temp;Humidity;BMP_temperature;BMP_pressure;BME280_temperature;BME280_humidity;BME280_pressure;Samples;Min_cycle;Max_cycle;Signal;HPM_P1;HPM_P2
2022/01/10 00:00:39;;;;;;;11.38;3.22;;;4.20;99.90;;;;;;4957947;28;20031;-66
2022/01/10 00:03:06;;;;;;;8.15;3.78;;;4.20;99.90;;;;;;4968377;28;20023;-66
2022/01/10 00:05:31;;;;;;;6.65;3.30;;;4.20;99.90;;;;;;4961850;28;20079;-66
2022/01/10 00:07:57;;;;;;;8.20;3.60;;;4.20;99.90;;;;;;4966252;28;20031;-66
2022/01/10 00:10:23;;;;;;;13.02;1.65;;;4.20;99.90;;;;;;4961066;28;20059;-66
2022/01/10 00:12:49;;;;;;;10.13;3.42;;;4.20;99.90;;;;;;4968372;28;20114;-66
2022/01/10 00:15:16;;;;;;;3.85;2.15;;;4.20;99.90;;;;;;4957764;28;20026;-66
2022/01/10 00:17:43;;;;;;;6.38;2.67;;;4.20;99.90;;;;;;4960449;28;20038;-66
2022/01/10 00:20:11;;;;;;;5.43;2.70;;;4.20;99.90;;;;;;4962280;28;20090;-66
2022/01/10 00:22:39;;;;;;;5.85;2.65;;;4.20;99.90;;;;;;4968070;28;20518;-66
2022/01/10 00:27:41;;;;;;;4.13;2.05;;;4.20;99.90;;;;;;5436955;23;20514;-65
2022/01/10 00:30:08;;;;;;;3.45;2.13;;;4.20;99.90;;;;;;4944725;28;20062;-65
2022/01/10 00:32:33;;;;;;;6.20;2.50;;;4.20;99.90;;;;;;4947104;28;20082;-65
2022/01/10 00:34:59;;;;;;;4.88;2.15;;;4.20;99.90;;;;;;4948703;28;20030;-65
2022/01/10 00:37:25;;;;;;;12.35;3.25;;;4.20;99.90;;;;;;4943725;28;20023;-65
2022/01/10 00:39:50;;;;;;;6.95;2.35;;;4.20;99.90;;;;;;4950372;28;20023;-65
2022/01/10 00:42:16;;;;;;;14.18;3.22;;;4.20;99.90;;;;;;4943322;28;20059;-65
2022/01/10 00:44:51;;;;;;;14.73;4.05;;;4.20;99.90;;;;;;4951994;28;20019;-65
2022/01/10 00:47:17;;;;;;;6.53;3.10;;;4.10;99.90;;;;;;4950304;28;20383;-65
2022/01/10 00:49:43;;;;;;;29.88;3.97;;;4.20;99.90;;;;;;4947293;28;20158;-65
2022/01/10 00:52:09;;;;;;;8.32;3.72;;;4.30;99.90;;;;;;4948730;28;20312;-65
2022/01/10 00:54:34;;;;;;;4.85;2.22;;;4.20;99.90;;;;;;4947058;28;20438;-65
2022/01/10 00:57:00;;;;;;;5.70;2.45;;;4.20;99.90;;;;;;4947860;28;20043;-65
2022/01/10 00:59:26;;;;;;;10.15;5.53;;;4.20;99.90;;;;;;4948495;28;20094;-65
2022/01/10 01:01:52;;;;;;;8.30;2.97;;;4.30;99.90;;;;;;4957866;28;20467;-65
2022/01/10 01:04:17;;;;;;;6.45;3.03;;;4.30;99.90;;;;;;4952239;28;20023;-65
2022/01/10 01:06:43;;;;;;;7.65;3.85;;;4.20;99.90;;;;;;4946684;28;20034;-65
2022/01/10 01:09:12;;;;;;;14.13;4.57;;;4.20;99.90;;;;;;4947527;28;20023;-65
2022/01/10 01:15:18;;;;;;;10.23;3.10;;;4.10;99.90;;;;;;4947846;28;20297;-65
2022/01/10 01:17:32;;;;;;;13.10;3.67;;;4.10;99.90;;;;;;4939148;28;20036;-65
2022/01/10 01:25:12;;;;;;;6.40;3.17;;;4.20;99.90;;;;;;4951443;28;20050;-65
2022/01/10 01:27:39;;;;;;;14.65;3.35;;;4.20;99.90;;;;;;4947641;28;20447;-65
2022/01/10 01:30:07;;;;;;;11.18;3.75;;;4.10;99.90;;;;;;4948216;28;20494;-65
2022/01/10 01:32:32;;;;;;;10.20;3.05;;;4.20;99.90;;;;;;4948074;28;20043;-65
2022/01/10 01:35:04;;;;;;;6.00;2.80;;;4.10;99.90;;;;;;4945739;28;20032;-65
2022/01/10 01:37:30;;;;;;;9.48;3.17;;;4.10;99.90;;;;;;4949957;28;20027;-65
2022/01/10 01:39:56;;;;;;;5.72;3.17;;;4.10;99.90;;;;;;4947309;28;20028;-65
2022/01/10 01:42:40;;;;;;;10.43;4.13;;;4.20;99.90;;;;;;4947977;28;20495;-65
2022/01/10 01:45:10;;;;;;;12.70;4.43;;;4.10;99.90;;;;;;4952309;28;20091;-65
2022/01/10 01:47:36;;;;;;;17.13;2.70;;;4.10;99.90;;;;;;4927880;29;20027;-65
2022/01/10 01:50:06;;;;;;;12.35;4.50;;;4.00;99.90;;;;;;4952993;28;20035;-65
2022/01/10 01:52:32;;;;;;;4.75;2.08;;;4.00;99.90;;;;;;4945284;28;20027;-65
2022/01/10 01:54:59;;;;;;;10.55;4.25;;;4.00;99.90;;;;;;4951012;28;20046;-65
2022/01/10 01:57:25;;;;;;;8.63;3.70;;;3.90;99.90;;;;;;4951035;28;20032;-65
2022/01/10 01:59:50;;;;;;;8.43;3.67;;;3.90;99.90;;;;;;4954181;28;20517;-65
2022/01/10 02:02:16;;;;;;;12.57;4.20;;;4.00;99.90;;;;;;4952543;28;20092;-65
2022/01/10 02:04:42;;;;;;;23.50;3.28;;;4.00;99.90;;;;;;4948609;28;20047;-65
2022/01/10 02:07:07;;;;;;;8.40;2.28;;;4.00;99.90;;;;;;4952720;28;20023;-65
2022/01/10 02:09:33;;;;;;;8.55;3.05;;;4.00;99.90;;;;;;4950139;28;20035;-65
2022/01/10 02:11:59;;;;;;;13.52;2.53;;;3.90;99.90;;;;;;4948775;28;20082;-65
2022/01/10 02:14:24;;;;;;;18.23;4.88;;;3.90;99.90;;;;;;4952391;28;20106;-65
2022/01/10 02:16:55;;;;;;;13.40;4.55;;;4.00;99.90;;;;;;4945206;28;20115;-65
2022/01/10 02:19:22;;;;;;;11.80;3.17;;;4.00;99.90;;;;;;4948383;28;20086;-65
2022/01/10 02:21:48;;;;;;;9.02;2.67;;;3.80;99.90;;;;;;4943830;28;20471;-65
2022/01/10 02:24:14;;;;;;;6.40;2.78;;;3.80;99.90;;;;;;4946649;28;20094;-63
2022/01/10 02:26:39;;;;;;;8.35;3.17;;;3.60;99.90;;;;;;4935691;28;20098;-63
2022/01/10 02:29:06;;;;;;;21.38;3.33;;;3.60;99.90;;;;;;4945374;28;20019;-63
2022/01/10 02:31:40;;;;;;;16.02;3.35;;;3.60;99.90;;;;;;4945732;28;20020;-65
2022/01/10 02:34:06;;;;;;;6.45;2.80;;;3.50;99.90;;;;;;4944403;28;20059;-65
2022/01/10 02:36:32;;;;;;;12.15;3.80;;;3.30;99.90;;;;;;4944197;28;20411;-65
2022/01/10 02:39:04;;;;;;;4.38;2.38;;;3.20;99.90;;;;;;4943836;28;20023;-64
2022/01/10 02:41:33;;;;;;;10.00;3.15;;;3.20;99.90;;;;;;4947109;28;20042;-65
2022/01/10 02:44:01;;;;;;;9.75;3.70;;;3.10;99.90;;;;;;4943397;28;20512;-65
2022/01/10 02:46:31;;;;;;;9.07;3.47;;;3.10;99.90;;;;;;4942542;28;20023;-65
2022/01/10 02:48:57;;;;;;;8.23;3.00;;;3.20;99.90;;;;;;4944754;28;20035;-65
2022/01/10 02:51:23;;;;;;;9.00;3.22;;;3.00;99.90;;;;;;4944461;28;20039;-65
2022/01/10 02:53:49;;;;;;;13.27;4.03;;;3.00;99.90;;;;;;4931345;28;20055;-65
2022/01/10 02:56:14;;;;;;;7.60;2.28;;;3.00;99.90;;;;;;4925235;29;20028;-63
2022/01/10 02:58:40;;;;;;;6.13;2.15;;;2.90;99.90;;;;;;4952488;28;20499;-63
2022/01/10 03:01:06;;;;;;;6.97;3.00;;;3.00;99.90;;;;;;4942400;28;20078;-63
2022/01/10 03:03:32;;;;;;;6.13;2.63;;;3.00;99.90;;;;;;4945069;28;20034;-63
2022/01/10 03:05:59;;;;;;;4.88;2.33;;;3.00;99.90;;;;;;4949524;28;20050;-63
2022/01/10 03:08:27;;;;;;;7.80;3.70;;;2.80;99.90;;;;;;4949743;28;20031;-63
2022/01/10 03:10:53;;;;;;;11.57;3.28;;;2.90;99.90;;;;;;4952290;28;20061;-63
2022/01/10 03:13:18;;;;;;;7.72;3.25;;;3.00;99.90;;;;;;4951839;28;20079;-63
2022/01/10 03:15:44;;;;;;;10.45;3.55;;;2.90;99.90;;;;;;4950978;29;20481;-63
2022/01/10 03:18:10;;;;;;;7.90;3.38;;;2.80;99.90;;;;;;4950577;28;20030;-63
2022/01/10 03:20:36;;;;;;;12.98;4.47;;;2.70;99.90;;;;;;4949645;28;20415;-63
2022/01/10 03:23:02;;;;;;;8.52;3.85;;;2.50;99.90;;;;;;4948578;28;20075;-63
2022/01/10 03:25:27;;;;;;;7.13;2.88;;;2.40;99.90;;;;;;4951664;28;20086;-63
2022/01/10 03:27:53;;;;;;;8.77;3.67;;;2.30;99.90;;;;;;4932021;29;20050;-63
2022/01/10 03:30:19;;;;;;;9.38;3.70;;;2.20;99.90;;;;;;4950231;28;20039;-63
2022/01/10 03:32:47;;;;;;;8.43;3.22;;;2.20;99.90;;;;;;4952019;28;20031;-63
2022/01/10 03:35:13;;;;;;;10.23;3.08;;;2.20;99.90;;;;;;4954047;28;20036;-63
2022/01/10 03:37:39;;;;;;;10.88;3.20;;;2.20;99.90;;;;;;4952614;28;20039;-63
2022/01/10 03:40:06;;;;;;;6.07;2.65;;;2.00;99.90;;;;;;4949168;28;20114;-63
2022/01/10 03:42:32;;;;;;;15.63;4.22;;;1.90;99.90;;;;;;4944786;28;20392;-65
2022/01/10 03:44:58;;;;;;;9.80;3.25;;;1.70;99.90;;;;;;4953515;28;20030;-64
2022/01/10 03:47:23;;;;;;;8.55;2.63;;;1.70;99.90;;;;;;4947538;28;20082;-64
2022/01/10 03:49:49;;;;;;;5.93;2.72;;;1.70;99.90;;;;;;4947791;28;20488;-64
2022/01/10 03:52:15;;;;;;;9.05;4.10;;;1.60;99.90;;;;;;4945573;28;20379;-64
2022/01/10 03:54:41;;;;;;;9.00;4.35;;;1.60;99.90;;;;;;4951918;28;20114;-64
2022/01/10 03:57:06;;;;;;;9.15;3.35;;;1.40;99.90;;;;;;4955098;28;20194;-64
2022/01/10 03:59:33;;;;;;;22.25;3.45;;;1.30;99.90;;;;;;4926481;29;20031;-64
2022/01/10 04:01:59;;;;;;;15.43;4.78;;;1.50;99.90;;;;;;4925497;29;20157;-64
2022/01/10 04:04:25;;;;;;;6.90;3.25;;;1.50;99.90;;;;;;4923362;29;20055;-64
2022/01/10 04:06:50;;;;;;;6.25;2.67;;;1.30;99.90;;;;;;4952285;28;20034;-64
2022/01/10 04:09:19;;;;;;;9.18;3.97;;;1.10;99.90;;;;;;4945121;28;20086;-64
2022/01/10 04:11:45;;;;;;;5.00;2.85;;;0.90;99.90;;;;;;4950185;28;20015;-64
2022/01/10 04:14:10;;;;;;;8.82;3.70;;;0.80;99.90;;;;;;4952672;28;20020;-64
2022/01/10 04:16:36;;;;;;;8.65;2.92;;;0.90;99.90;;;;;;4945339;28;20071;-64
2022/01/10 04:19:02;;;;;;;14.93;2.85;;;0.90;99.90;;;;;;4957007;28;20106;-64
2022/01/10 04:21:27;;;;;;;8.35;3.42;;;0.90;99.90;;;;;;4942956;28;20074;-64
2022/01/10 04:23:53;;;;;;;13.38;4.65;;;0.70;99.90;;;;;;4945248;28;20024;-64
2022/01/10 04:26:19;;;;;;;10.52;3.03;;;0.60;99.90;;;;;;4943487;28;20046;-64
2022/01/10 04:28:44;;;;;;;8.98;3.30;;;0.50;99.90;;;;;;4941595;28;20090;-64
2022/01/10 04:31:11;;;;;;;10.52;4.10;;;0.70;99.90;;;;;;4949237;28;20097;-64
2022/01/10 04:33:37;;;;;;;9.38;4.57;;;0.80;99.90;;;;;;4953884;28;20060;-64
2022/01/10 04:36:04;;;;;;;5.95;2.95;;;0.70;99.90;;;;;;4926360;28;20027;-64
2022/01/10 04:38:29;;;;;;;9.18;3.70;;;0.70;99.90;;;;;;4947332;29;20034;-64
2022/01/10 04:40:55;;;;;;;12.25;3.85;;;0.70;99.90;;;;;;4947968;28;20424;-64
2022/01/10 04:43:21;;;;;;;4.72;2.25;;;0.80;99.90;;;;;;4949531;28;20015;-64
2022/01/10 04:45:47;;;;;;;9.68;3.63;;;0.70;99.90;;;;;;4930487;29;20070;-64
2022/01/10 04:48:17;;;;;;;6.93;2.78;;;0.60;99.90;;;;;;4949552;28;20423;-64
2022/01/10 04:53:15;;;;;;;11.85;4.22;;;0.40;99.90;;;;;;4949879;28;20059;-63
2022/01/10 04:55:41;;;;;;;21.73;3.80;;;0.40;99.90;;;;;;4949581;28;20058;-63
2022/01/10 04:58:06;;;;;;;7.57;3.08;;;0.40;99.90;;;;;;4947124;28;20027;-63
2022/01/10 05:00:32;;;;;;;9.38;4.85;;;0.20;99.90;;;;;;4949698;28;20387;-64
2022/01/10 05:02:58;;;;;;;4.68;2.85;;;0.20;99.90;;;;;;4949437;28;20024;-64
2022/01/10 05:05:23;;;;;;;12.30;3.60;;;0.30;99.90;;;;;;4948943;28;20082;-63
2022/01/10 05:07:49;;;;;;;22.48;3.55;;;0.30;99.90;;;;;;4945245;28;20055;-64
2022/01/10 05:10:14;;;;;;;9.02;3.00;;;0.20;99.90;;;;;;4950197;28;20126;-64
2022/01/10 05:12:40;;;;;;;14.07;3.20;;;0.30;99.90;;;;;;4963880;28;20106;-64
2022/01/10 05:15:06;;;;;;;12.10;5.03;;;0.40;99.90;;;;;;4959352;28;20026;-64
2022/01/10 05:17:32;;;;;;;11.23;4.10;;;0.50;99.90;;;;;;4959501;28;20447;-64
2022/01/10 05:19:58;;;;;;;5.72;2.65;;;0.40;99.90;;;;;;4948235;28;20167;-64
2022/01/10 05:22:23;;;;;;;8.73;2.67;;;0.40;99.90;;;;;;4958086;28;20074;-64
2022/01/10 05:24:49;;;;;;;10.05;3.55;;;0.30;99.90;;;;;;4966781;28;20089;-64
2022/01/10 05:27:14;;;;;;;4.07;2.22;;;0.50;99.90;;;;;;4960699;28;20503;-64
2022/01/10 05:29:40;;;;;;;6.50;4.00;;;0.50;99.90;;;;;;4954304;28;20039;-64
2022/01/10 05:32:06;;;;;;;21.40;3.10;;;0.60;99.90;;;;;;4929317;28;20036;-63
2022/01/10 05:34:32;;;;;;;4.43;2.40;;;0.50;99.90;;;;;;4965344;28;20023;-64
2022/01/10 05:36:58;;;;;;;4.90;2.45;;;0.40;99.90;;;;;;4960282;28;20038;-64
2022/01/10 05:39:23;;;;;;;12.80;5.07;;;0.30;99.90;;;;;;4953065;28;20399;-64
2022/01/10 05:41:49;;;;;;;7.70;3.70;;;0.20;99.90;;;;;;4960590;28;20146;-64
2022/01/10 05:44:14;;;;;;;8.90;3.60;;;0.10;99.90;;;;;;4964191;28;20527;-64
2022/01/10 05:46:43;;;;;;;7.45;3.47;;;-0.10;99.90;;;;;;4968465;28;20098;-64
2022/01/10 05:49:12;;;;;;;3.95;2.40;;;-0.30;99.90;;;;;;4965612;28;20496;-64
2022/01/10 05:51:38;;;;;;;3.97;2.50;;;-0.40;99.90;;;;;;4961774;28;20695;-66
2022/01/10 05:54:06;;;;;;;8.93;5.20;;;-0.40;99.90;;;;;;4954396;28;20541;-65
2022/01/10 05:56:32;;;;;;;8.63;3.60;;;-0.50;99.90;;;;;;4958367;28;20998;-65
2022/01/10 05:58:59;;;;;;;8.80;4.25;;;-0.60;99.90;;;;;;4956898;28;20102;-65
2022/01/10 06:01:25;;;;;;;8.68;3.88;;;-0.50;99.90;;;;;;4951621;28;20028;-65
2022/01/10 06:03:50;;;;;;;8.23;3.63;;;-0.40;99.90;;;;;;4962503;28;20070;-65
2022/01/10 06:06:16;;;;;;;12.98;3.80;;;-0.20;99.90;;;;;;4963256;28;20027;-65
2022/01/10 06:08:42;;;;;;;10.82;4.03;;;-0.10;99.90;;;;;;4966545;28;20526;-65
2022/01/10 06:11:10;;;;;;;8.57;3.90;;;-0.10;99.90;;;;;;4966055;28;20105;-65
2022/01/10 06:13:36;;;;;;;8.02;3.88;;;0.20;99.90;;;;;;4947447;28;20019;-64
2022/01/10 06:16:02;;;;;;;11.25;4.68;;;-0.20;99.90;;;;;;4948282;28;20146;-65
2022/01/10 06:18:28;;;;;;;8.23;3.60;;;-0.30;99.90;;;;;;4942343;29;20023;-64
2022/01/10 06:20:54;;;;;;;7.00;2.72;;;-0.20;99.90;;;;;;4943862;28;20039;-64
2022/01/10 06:23:20;;;;;;;8.95;3.88;;;-0.10;99.90;;;;;;4952752;28;20074;-63
2022/01/10 06:25:46;;;;;;;10.65;3.22;;;-0.10;99.90;;;;;;4949818;28;20035;-63
2022/01/10 06:28:12;;;;;;;8.13;3.55;;;-0.10;99.90;;;;;;4957586;28;20082;-63
2022/01/10 06:30:37;;;;;;;8.55;4.15;;;0.00;99.90;;;;;;4961359;28;20054;-64
2022/01/10 06:33:03;;;;;;;11.80;5.35;;;0.20;99.90;;;;;;4961045;28;20042;-64
2022/01/10 06:35:28;;;;;;;27.80;4.18;;;0.30;99.90;;;;;;4965049;28;20544;-64
2022/01/10 06:37:54;;;;;;;9.70;4.28;;;0.70;99.90;;;;;;4950854;28;20039;-65
2022/01/10 06:40:21;;;;;;;18.73;4.90;;;0.70;99.90;;;;;;4941725;28;20401;-65
2022/01/10 06:42:46;;;;;;;10.60;4.72;;;0.90;99.90;;;;;;4945187;28;20507;-65
2022/01/10 06:45:13;;;;;;;10.45;3.95;;;0.80;99.90;;;;;;4950059;28;20019;-65
2022/01/10 06:47:39;;;;;;;20.13;3.80;;;0.80;99.90;;;;;;4930182;29;20102;-65
2022/01/10 06:50:06;;;;;;;7.00;4.38;;;0.90;99.90;;;;;;4949248;28;20035;-65
2022/01/10 06:52:32;;;;;;;6.80;3.30;;;1.00;99.90;;;;;;4949473;28;20967;-65
2022/01/10 06:54:58;;;;;;;8.45;3.92;;;1.10;99.90;;;;;;4955697;28;20024;-64
2022/01/10 06:57:24;;;;;;;11.82;4.13;;;1.20;99.90;;;;;;4957417;28;20030;-65
2022/01/10 06:59:50;;;;;;;7.90;5.03;;;1.40;99.90;;;;;;4943932;28;20726;-64
2022/01/10 07:02:16;;;;;;;9.15;4.72;;;1.40;99.90;;;;;;4954361;28;20035;-64
2022/01/10 07:04:43;;;;;;;8.60;3.47;;;1.50;99.90;;;;;;4944164;28;20063;-65
2022/01/10 07:07:08;;;;;;;7.15;4.78;;;1.60;99.90;;;;;;4951150;28;20023;-64
2022/01/10 07:09:34;;;;;;;11.98;4.75;;;1.70;99.90;;;;;;4942956;28;20030;-64
2022/01/10 07:12:00;;;;;;;7.70;2.78;;;1.70;99.90;;;;;;4955095;28;20057;-65
2022/01/10 07:14:25;;;;;;;10.55;4.68;;;1.60;99.90;;;;;;4952926;28;20584;-64
2022/01/10 07:16:51;;;;;;;11.05;3.95;;;1.50;99.90;;;;;;4943651;28;20068;-65
2022/01/10 07:19:18;;;;;;;7.28;4.18;;;1.50;99.90;;;;;;4953188;28;20030;-65
2022/01/10 07:21:43;;;;;;;9.23;4.20;;;1.50;99.90;;;;;;4949658;28;20464;-65
2022/01/10 07:24:09;;;;;;;5.72;3.33;;;1.50;99.90;;;;;;4947014;28;20019;-65
2022/01/10 07:26:35;;;;;;;8.02;3.60;;;1.60;99.90;;;;;;4948556;28;20023;-65
2022/01/10 07:29:01;;;;;;;15.80;5.78;;;1.60;99.90;;;;;;4937513;28;20039;-64
2022/01/10 07:31:27;;;;;;;8.38;3.92;;;1.70;99.90;;;;;;4917525;28;20027;-65
2022/01/10 07:33:54;;;;;;;12.48;3.58;;;1.70;99.90;;;;;;4953827;28;20127;-65
2022/01/10 07:36:20;;;;;;;11.35;5.43;;;1.70;99.90;;;;;;4947683;28;20077;-65
2022/01/10 07:38:46;;;;;;;8.50;4.25;;;1.60;99.90;;;;;;4945714;28;20035;-65
2022/01/10 07:41:11;;;;;;;8.85;3.92;;;1.70;99.90;;;;;;4929700;28;20035;-65
2022/01/10 07:43:37;;;;;;;13.23;4.70;;;1.70;99.90;;;;;;4945322;28;20030;-65
2022/01/10 08:21:55;;;;;;;9.60;4.22;;;2.30;99.90;;;;;;4943476;28;20117;-66
2022/01/10 08:24:22;;;;;;;8.30;3.88;;;2.40;99.90;;;;;;4949253;28;20019;-66
2022/01/10 08:26:49;;;;;;;7.35;4.10;;;2.30;99.90;;;;;;4941189;28;20036;-66
2022/01/10 08:29:14;;;;;;;10.57;5.05;;;2.40;99.90;;;;;;4940720;28;20042;-66
2022/01/10 08:31:40;;;;;;;10.63;4.55;;;2.40;99.90;;;;;;4943218;28;20446;-66
2022/01/10 08:34:06;;;;;;;9.38;4.43;;;2.40;99.90;;;;;;4941019;28;20035;-67
2022/01/10 08:36:34;;;;;;;9.05;4.40;;;2.50;99.90;;;;;;4926724;29;20031;-66
2022/01/10 08:39:00;;;;;;;10.07;5.03;;;2.60;99.90;;;;;;4940036;28;20447;-66
2022/01/10 08:41:26;;;;;;;12.57;6.70;;;2.60;99.90;;;;;;4924287;29;20031;-66
2022/01/10 08:43:51;;;;;;;10.60;5.03;;;2.60;99.90;;;;;;4926760;28;20480;-66
2022/01/10 08:46:17;;;;;;;11.95;4.55;;;2.80;99.90;;;;;;4927284;29;20024;-66
2022/01/10 08:48:44;;;;;;;12.27;4.20;;;2.80;99.90;;;;;;4941678;28;20526;-66
2022/01/10 08:51:10;;;;;;;9.82;5.72;;;2.80;99.90;;;;;;4942154;28;20073;-66
2022/01/10 08:53:35;;;;;;;14.38;6.00;;;2.80;99.90;;;;;;4941459;28;20019;-66
2022/01/10 08:56:02;;;;;;;19.95;6.90;;;2.90;99.90;;;;;;4942542;28;20023;-66
2022/01/10 08:58:32;;;;;;;9.82;4.88;;;2.90;99.90;;;;;;4927994;29;20123;-66
2022/01/10 09:00:59;;;;;;;12.23;5.20;;;2.90;99.90;;;;;;4922270;29;20027;-66
2022/01/10 09:03:25;;;;;;;16.73;5.80;;;2.90;99.90;;;;;;4944581;28;20066;-66
2022/01/10 09:05:54;;;;;;;19.42;6.60;;;3.30;99.90;;;;;;4941098;28;20066;-65
2022/01/10 09:08:20;;;;;;;12.60;3.92;;;3.20;99.90;;;;;;4945986;28;20031;-66
2022/01/10 09:10:46;;;;;;;7.70;3.17;;;3.30;99.90;;;;;;4937461;28;20031;-65
2022/01/10 09:13:12;;;;;;;7.07;3.50;;;3.40;99.90;;;;;;4947783;28;20024;-65
2022/01/10 09:15:37;;;;;;;11.70;3.97;;;3.30;99.90;;;;;;4947462;28;20478;-65
2022/01/10 09:18:04;;;;;;;20.17;6.93;;;3.30;99.90;;;;;;4952747;28;20039;-65
2022/01/10 09:20:29;;;;;;;16.83;5.57;;;3.50;99.90;;;;;;4944345;28;20030;-65
2022/01/10 09:22:55;;;;;;;11.15;5.85;;;3.90;99.90;;;;;;4947550;28;20682;-65
2022/01/10 09:25:22;;;;;;;13.75;5.20;;;4.10;99.90;;;;;;4943056;29;20035;-65
2022/01/10 09:27:48;;;;;;;26.98;6.38;;;4.50;99.90;;;;;;4949622;28;20047;-66
2022/01/10 09:30:13;;;;;;;16.15;6.15;;;4.80;99.90;;;;;;4946990;28;20479;-66
2022/01/10 09:32:39;;;;;;;12.73;5.55;;;5.20;99.90;;;;;;4948585;28;20032;-66
2022/01/10 09:35:05;;;;;;;8.98;4.05;;;5.60;99.90;;;;;;4951448;28;20685;-66
2022/01/10 09:37:31;;;;;;;16.60;3.70;;;5.70;99.90;;;;;;4946056;28;20032;-66
2022/01/10 09:39:56;;;;;;;19.52;8.05;;;6.00;99.90;;;;;;4942730;28;20078;-66
2022/01/10 09:42:23;;;;;;;17.77;5.53;;;6.80;99.90;;;;;;4942820;28;20055;-66
2022/01/10 09:44:48;;;;;;;15.73;5.43;;;7.20;99.90;;;;;;4946377;28;20050;-66
2022/01/10 09:47:14;;;;;;;13.85;4.97;;;7.60;99.90;;;;;;4944021;28;20463;-66
2022/01/10 09:49:40;;;;;;;13.02;5.07;;;8.00;99.90;;;;;;4945182;28;20027;-65
2022/01/10 09:52:06;;;;;;;14.70;4.85;;;7.70;99.90;;;;;;4944204;28;20523;-65
2022/01/10 09:54:32;;;;;;;16.85;6.35;;;8.00;99.90;;;;;;4943596;28;20052;-65
2022/01/10 09:56:58;;;;;;;16.40;5.10;;;7.80;99.90;;;;;;4944116;29;20054;-65
2022/01/10 09:59:23;;;;;;;16.30;6.43;;;7.90;99.90;;;;;;4942029;28;20199;-65
2022/01/10 10:01:50;;;;;;;16.20;5.03;;;7.80;99.90;;;;;;4944141;28;20031;-65
2022/01/10 10:04:17;;;;;;;15.25;5.40;;;7.20;99.90;;;;;;4947811;28;20027;-65
2022/01/10 10:06:45;;;;;;;20.10;6.00;;;7.20;99.90;;;;;;4950136;28;20035;-65
2022/01/10 10:09:11;;;;;;;14.63;5.38;;;7.00;99.90;;;;;;4936612;28;20030;-65
2022/01/10 10:11:44;;;;;;;15.00;4.82;;;6.90;99.90;;;;;;4960711;28;20035;-66
2022/01/10 10:14:12;;;;;;;18.30;6.22;;;7.60;99.90;;;;;;4963086;28;20034;-65
2022/01/10 10:16:41;;;;;;;18.50;4.95;;;7.60;99.90;;;;;;4950482;28;20035;-65
2022/01/10 10:19:07;;;;;;;12.13;4.03;;;7.80;99.90;;;;;;4950766;28;20038;-65
2022/01/10 10:21:33;;;;;;;16.48;5.90;;;8.00;99.90;;;;;;4954642;28;20027;-63
2022/01/10 10:24:00;;;;;;;21.02;5.07;;;8.40;99.90;;;;;;4961087;28;20042;-65
2022/01/10 10:26:26;;;;;;;8.43;3.90;;;9.00;99.90;;;;;;4947525;28;20023;-65
2022/01/10 10:28:53;;;;;;;8.85;3.10;;;9.00;99.90;;;;;;4945070;28;20460;-66
2022/01/10 10:31:35;;;;;;;10.23;4.18;;;9.00;99.90;;;;;;4945633;28;20032;-66
2022/01/10 10:34:04;;;;;;;16.33;5.45;;;8.90;99.90;;;;;;4956825;28;20109;-65
2022/01/10 10:36:32;;;;;;;16.15;4.57;;;8.70;99.90;;;;;;4964525;28;20038;-64
2022/01/10 10:39:03;;;;;;;19.92;4.88;;;8.70;99.90;;;;;;4956291;28;20046;-65
2022/01/10 10:41:29;;;;;;;17.40;5.35;;;9.00;99.90;;;;;;4960945;28;20487;-66
2022/01/10 10:43:55;;;;;;;13.00;4.18;;;9.20;99.90;;;;;;4959916;28;20023;-65
2022/01/10 10:46:26;;;;;;;12.70;4.05;;;9.20;99.90;;;;;;4946183;28;20031;-66
2022/01/10 10:48:57;;;;;;;16.15;4.65;;;9.40;99.90;;;;;;4952180;28;20096;-66
2022/01/10 10:51:27;;;;;;;14.30;4.05;;;9.80;99.90;;;;;;4928211;29;20064;-66
2022/01/10 10:53:56;;;;;;;9.50;4.20;;;10.00;99.90;;;;;;4945232;28;20053;-65
2022/01/10 10:56:22;;;;;;;11.38;3.92;;;10.30;99.90;;;;;;4945950;28;20418;-66
2022/01/10 10:58:48;;;;;;;14.02;4.57;;;10.40;99.90;;;;;;4942380;28;20035;-66
2022/01/10 11:01:13;;;;;;;16.30;3.65;;;10.50;99.90;;;;;;4947127;28;20039;-66
2022/01/10 11:03:40;;;;;;;22.10;5.18;;;11.00;99.90;;;;;;4948486;28;20035;-66
2022/01/10 11:06:07;;;;;;;13.52;3.88;;;10.50;99.90;;;;;;4949136;28;20081;-67
2022/01/10 11:08:36;;;;;;;13.70;4.55;;;11.50;99.90;;;;;;4945130;28;20099;-65
2022/01/10 11:11:02;;;;;;;10.25;3.70;;;11.70;99.90;;;;;;4946575;28;20026;-65
2022/01/10 11:13:30;;;;;;;13.50;4.05;;;12.10;99.90;;;;;;4945193;28;20026;-65
2022/01/10 11:15:58;;;;;;;11.77;4.22;;;11.40;99.90;;;;;;4926562;29;20033;-66
2022/01/10 11:18:23;;;;;;;8.82;3.38;;;11.30;99.90;;;;;;4951648;28;20034;-64
2022/01/10 11:20:53;;;;;;;10.68;3.85;;;11.90;99.90;;;;;;4944606;28;20023;-64
2022/01/10 11:23:21;;;;;;;11.52;3.72;;;12.20;99.90;;;;;;4937172;28;20031;-64
2022/01/10 11:25:47;;;;;;;12.65;3.97;;;12.90;99.90;;;;;;4946753;28;20050;-64
2022/01/10 11:28:23;;;;;;;15.00;4.57;;;13.00;99.90;;;;;;4918928;28;20515;-64
2022/01/10 11:30:51;;;;;;;12.50;4.00;;;12.40;99.90;;;;;;4944448;28;20039;-64
2022/01/10 11:33:22;;;;;;;10.27;3.92;;;11.70;99.90;;;;;;4929419;29;20708;-64
2022/01/10 11:36:03;;;;;;;17.67;3.65;;;12.10;99.90;;;;;;4952088;28;20038;-65
2022/01/10 11:38:31;;;;;;;7.18;2.70;;;13.00;99.90;;;;;;4947887;28;20518;-64
2022/01/10 11:41:00;;;;;;;11.18;3.60;;;13.80;99.90;;;;;;4945897;28;20038;-64
2022/01/10 11:43:46;;;;;;;12.95;2.90;;;13.60;99.90;;;;;;4941791;28;20029;-64
2022/01/10 11:46:17;;;;;;;11.40;3.03;;;13.80;99.90;;;;;;4939819;28;20464;-64
2022/01/10 11:48:50;;;;;;;11.73;2.80;;;12.20;99.90;;;;;;4935164;29;20031;-64
2022/01/10 11:51:25;;;;;;;15.30;2.65;;;12.10;99.90;;;;;;4944406;28;20054;-66
2022/01/10 11:53:54;;;;;;;11.88;2.45;;;11.30;99.90;;;;;;4931857;29;20028;-64
2022/01/10 11:56:27;;;;;;;11.20;2.67;;;10.50;99.90;;;;;;4944182;28;20046;-64
2022/01/10 11:59:11;;;;;;;8.27;3.05;;;9.40;99.90;;;;;;4944250;28;20031;-66
2022/01/10 12:02:03;;;;;;;15.80;2.40;;;8.70;99.90;;;;;;4945044;28;20042;-66
2022/01/10 12:04:35;;;;;;;6.72;1.85;;;9.10;99.90;;;;;;4942044;28;20062;-65
2022/01/10 12:07:02;;;;;;;13.43;2.38;;;10.10;99.90;;;;;;4945342;28;20487;-66
2022/01/10 12:09:29;;;;;;;4.82;1.63;;;11.00;99.90;;;;;;4930781;29;20134;-66
2022/01/10 12:11:57;;;;;;;8.25;1.92;;;11.90;99.90;;;;;;4947027;28;20623;-66
2022/01/10 12:14:22;;;;;;;7.50;1.88;;;12.30;99.90;;;;;;4947146;28;20395;-66
2022/01/10 12:16:49;;;;;;;6.88;2.15;;;12.30;99.90;;;;;;4945257;28;20023;-66
2022/01/10 12:19:15;;;;;;;7.22;1.92;;;12.40;99.90;;;;;;4947846;28;20027;-66
2022/01/10 12:21:41;;;;;;;3.67;1.55;;;12.00;99.90;;;;;;4941780;28;20507;-66
2022/01/10 12:24:07;;;;;;;4.72;1.65;;;12.80;99.90;;;;;;4942661;28;20551;-66
2022/01/10 12:26:35;;;;;;;9.05;1.92;;;13.40;99.90;;;;;;4950500;28;20042;-66
2022/01/10 12:29:03;;;;;;;5.25;1.98;;;13.40;99.90;;;;;;4925460;28;20061;-66
2022/01/10 12:31:31;;;;;;;4.03;1.45;;;13.10;99.90;;;;;;4955661;28;20645;-66
2022/01/10 12:33:59;;;;;;;10.50;1.88;;;13.10;99.90;;;;;;4936565;28;20036;-66
2022/01/10 12:36:27;;;;;;;4.07;1.33;;;12.60;99.90;;;;;;4958888;28;20031;-66
2022/01/10 12:38:58;;;;;;;7.47;1.90;;;11.50;99.90;;;;;;4956682;28;20046;-66
2022/01/10 12:41:27;;;;;;;8.85;1.88;;;10.20;99.90;;;;;;4943514;28;20170;-66
2022/01/10 12:43:53;;;;;;;8.05;1.75;;;9.20;99.90;;;;;;4942380;28;20126;-66
2022/01/10 12:46:20;;;;;;;6.57;1.85;;;8.90;99.90;;;;;;4944669;28;20013;-66
2022/01/10 12:48:50;;;;;;;2.08;1.02;;;9.60;99.90;;;;;;4944201;28;20510;-66
2022/01/10 12:51:17;;;;;;;6.93;1.63;;;11.00;99.90;;;;;;4942672;28;20383;-66
2022/01/10 12:53:47;;;;;;;4.07;1.45;;;11.30;99.90;;;;;;4941699;28;20491;-66
2022/01/10 12:56:18;;;;;;;9.90;1.90;;;10.50;99.90;;;;;;4941619;28;20015;-66
2022/01/10 12:58:44;;;;;;;6.15;2.05;;;9.80;99.90;;;;;;4940439;28;20039;-66
2022/01/10 13:01:11;;;;;;;6.95;2.33;;;9.10;99.90;;;;;;4942739;28;20683;-66
2022/01/10 13:03:38;;;;;;;8.32;3.15;;;8.50;99.90;;;;;;4949733;28;20069;-66
2022/01/10 13:06:04;;;;;;;11.07;3.40;;;7.90;99.90;;;;;;4942093;28;20035;-66
2022/01/10 13:08:36;;;;;;;15.88;3.13;;;7.80;99.90;;;;;;4942133;28;20028;-66
2022/01/10 13:11:08;;;;;;;9.07;3.22;;;7.40;99.90;;;;;;4946443;28;20038;-66
2022/01/10 13:13:35;;;;;;;9.15;3.10;;;7.10;99.90;;;;;;4942423;28;20034;-66
2022/01/10 13:16:00;;;;;;;12.20;3.83;;;7.10;99.90;;;;;;4941608;28;20034;-66
2022/01/10 13:18:26;;;;;;;14.40;4.20;;;6.90;99.90;;;;;;4945049;28;20050;-66
2022/01/10 13:20:56;;;;;;;7.40;2.97;;;6.70;99.90;;;;;;4946025;28;20472;-66
2022/01/10 13:23:26;;;;;;;8.23;3.40;;;6.50;99.90;;;;;;4941550;28;20106;-66
2022/01/10 13:25:55;;;;;;;9.40;3.35;;;6.40;99.90;;;;;;4943659;28;20510;-66
2022/01/10 13:28:21;;;;;;;10.60;4.13;;;6.40;99.90;;;;;;4942660;28;20046;-66
2022/01/10 13:30:55;;;;;;;14.77;4.43;;;6.30;99.90;;;;;;4945724;28;20043;-66
2022/01/10 13:33:34;;;;;;;12.73;3.15;;;6.30;99.90;;;;;;4943763;28;20053;-66
2022/01/10 13:36:00;;;;;;;10.27;3.67;;;6.20;99.90;;;;;;4942143;28;20111;-66
2022/01/10 13:38:27;;;;;;;9.52;3.60;;;5.50;99.90;;;;;;4949588;28;20569;-66